Time;durP1;ratioP1;P1;durP2;ratioP2;P2;SDS_P1;SDS_P2;PMS_P1;PMS_P2;Temp;Humidity;BMP_temperature;BMP_pressure;BME280_temperature;BME280_humidity;BME280_pressure;Samples;Min_cycle;Max_cycle;Signal;HPM_P1;HPM_P2
2021/09/14 00:00:20;;;;;;;4.40;4.10;;;25.60;54.00;;;;;;5008170;28;20252;-48
2021/09/14 00:02:47;;;;;;;4.80;4.50;;;25.60;54.10;;;;;;5004812;28;20248;-49
2021/09/14 00:05:13;;;;;;;5.20;4.80;;;25.20;54.70;;;;;;5006970;28;20599;-51
2021/09/14 00:07:38;;;;;;;5.57;5.17;;;25.30;54.70;;;;;;5004594;28;20460;-51
2021/09/14 00:10:06;;;;;;;6.43;4.77;;;25.40;54.50;;;;;;5007181;28;20273;-46
2021/09/14 00:12:32;;;;;;;4.63;4.27;;;25.40;54.80;;;;;;5003041;28;20203;-50
2021/09/14 00:14:58;;;;;;;5.10;4.40;;;25.40;54.80;;;;;;5005891;28;20535;-50
2021/09/14 00:17:23;;;;;;;4.50;4.20;;;25.20;54.70;;;;;;5003760;28;20221;-52
2021/09/14 00:19:49;;;;;;;4.83;4.53;;;24.90;55.80;;;;;;5007066;28;20684;-49
2021/09/14 00:22:15;;;;;;;6.17;4.30;;;24.90;55.40;;;;;;5009944;28;20185;-52
2021/09/14 00:24:40;;;;;;;4.77;4.37;;;24.90;55.70;;;;;;5007738;28;20204;-50
2021/09/14 00:27:06;;;;;;;5.50;5.00;;;25.10;55.40;;;;;;5009454;28;20194;-50
2021/09/14 00:29:31;;;;;;;4.33;3.90;;;25.20;54.90;;;;;;5007196;28;20214;-52
2021/09/14 00:31:57;;;;;;;4.97;4.57;;;25.30;54.90;;;;;;5009720;28;20194;-48
2021/09/14 00:34:22;;;;;;;4.80;4.50;;;25.40;54.50;;;;;;5008086;28;20606;-52
2021/09/14 00:36:48;;;;;;;5.00;4.43;;;25.50;54.30;;;;;;5009828;28;20239;-52
2021/09/14 00:39:14;;;;;;;4.73;4.43;;;25.40;54.30;;;;;;5007703;28;20190;-47
2021/09/14 00:41:39;;;;;;;7.07;4.70;;;25.40;54.60;;;;;;5007029;28;20276;-51
2021/09/14 00:44:05;;;;;;;6.63;4.70;;;25.40;54.50;;;;;;5006146;28;20221;-50
2021/09/14 00:46:30;;;;;;;4.87;4.47;;;25.40;54.20;;;;;;5010621;28;20256;-51
2021/09/14 00:48:56;;;;;;;5.70;5.20;;;25.00;55.40;;;;;;5006970;28;20186;-51
2021/09/14 00:51:22;;;;;;;4.37;3.97;;;25.10;55.10;;;;;;5009394;28;20186;-51
2021/09/14 00:53:48;;;;;;;5.60;4.87;;;25.20;54.90;;;;;;5002969;28;20198;-51
2021/09/14 00:56:17;;;;;;;4.73;4.33;;;25.20;54.80;;;;;;5007924;28;20218;-51
2021/09/14 00:58:44;;;;;;;6.47;4.90;;;25.40;54.40;;;;;;5009464;28;20468;-49
2021/09/14 01:01:10;;;;;;;4.83;4.43;;;25.40;54.20;;;;;;5008754;28;20445;-45
2021/09/14 01:03:36;;;;;;;4.77;4.37;;;25.30;54.30;;;;;;5008571;28;20455;-45
2021/09/14 01:06:03;;;;;;;7.73;4.73;;;25.40;54.10;;;;;;5005378;28;20484;-45
2021/09/14 01:08:30;;;;;;;4.90;4.43;;;25.40;54.30;;;;;;5010424;28;20465;-46
2021/09/14 01:10:56;;;;;;;4.87;4.37;;;25.30;54.40;;;;;;5004840;28;20453;-48
2021/09/14 01:13:22;;;;;;;4.50;4.20;;;25.30;54.40;;;;;;5009130;28;20452;-46
2021/09/14 01:15:47;;;;;;;5.93;4.33;;;25.30;54.60;;;;;;5005372;28;20218;-46
2021/09/14 01:18:13;;;;;;;5.13;4.60;;;25.20;54.50;;;;;;5008378;28;20672;-48
2021/09/14 01:20:39;;;;;;;4.83;4.43;;;25.40;54.50;;;;;;5008557;28;20221;-45
2021/09/14 01:23:04;;;;;;;5.53;4.50;;;25.40;54.30;;;;;;5009766;28;20201;-46
2021/09/14 01:25:30;;;;;;;5.53;4.30;;;25.40;54.20;;;;;;5010786;28;20194;-46
2021/09/14 01:28:06;;;;;;;5.33;4.83;;;25.50;53.90;;;;;;5012905;28;20206;-45
2021/09/14 01:30:33;;;;;;;5.30;4.90;;;25.40;54.10;;;;;;5010227;28;20197;-46
2021/09/14 01:32:59;;;;;;;5.10;4.70;;;25.50;53.90;;;;;;5002137;28;20440;-47
2021/09/14 01:35:27;;;;;;;5.73;4.53;;;25.50;54.00;;;;;;5006955;28;20539;-45
2021/09/14 01:37:53;;;;;;;4.60;4.20;;;25.40;54.50;;;;;;5008066;28;20444;-46
2021/09/14 01:40:19;;;;;;;5.07;4.67;;;25.50;53.80;;;;;;5007391;28;20440;-45
2021/09/14 01:42:45;;;;;;;6.10;4.40;;;25.50;53.70;;;;;;5006238;28;20944;-46
2021/09/14 01:45:12;;;;;;;4.73;4.33;;;25.40;54.20;;;;;;5006062;28;20190;-45
2021/09/14 01:47:39;;;;;;;6.30;4.30;;;25.30;54.30;;;;;;5003622;28;21035;-45
2021/09/14 01:50:06;;;;;;;5.00;4.60;;;25.30;54.00;;;;;;5009288;28;20882;-46
2021/09/14 01:52:33;;;;;;;8.80;5.23;;;25.40;53.90;;;;;;5006376;28;20480;-52
2021/09/14 01:55:03;;;;;;;5.60;4.87;;;25.50;53.60;;;;;;5012017;28;20445;-47
2021/09/14 01:57:33;;;;;;;10.17;4.97;;;25.40;53.70;;;;;;5013272;28;20491;-48
2021/09/14 02:00:00;;;;;;;5.20;4.70;;;25.40;53.80;;;;;;5009661;28;20507;-48
2021/09/14 02:05:46;;;;;;;7.10;5.10;;;25.40;53.90;;;;;;5005378;28;20867;-47
2021/09/14 02:08:26;;;;;;;5.00;4.63;;;25.30;54.10;;;;;;5006219;28;20449;-45
2021/09/14 02:59:58;;;;;;;4.80;4.40;;;25.20;53.50;;;;;;5008567;28;20536;-48
2021/09/14 03:02:24;;;;;;;5.13;4.60;;;25.20;53.60;;;;;;5003389;28;21037;-48
2021/09/14 03:04:50;;;;;;;5.10;4.43;;;25.20;53.60;;;;;;5002769;28;20563;-47
2021/09/14 03:07:15;;;;;;;4.30;3.90;;;25.10;53.80;;;;;;5006849;28;20194;-46
2021/09/14 03:09:41;;;;;;;4.67;4.27;;;25.20;53.50;;;;;;5004660;28;20654;-49
2021/09/14 03:12:06;;;;;;;4.37;3.97;;;25.20;53.50;;;;;;5007373;28;20285;-46
2021/09/14 03:14:32;;;;;;;5.77;5.20;;;25.20;53.50;;;;;;5004520;28;20304;-47
2021/09/14 03:16:58;;;;;;;4.30;4.00;;;25.10;53.70;;;;;;5006064;28;20228;-45
2021/09/14 03:19:23;;;;;;;4.80;4.30;;;25.10;53.60;;;;;;5004020;28;20539;-47
2021/09/14 03:21:49;;;;;;;4.60;4.20;;;25.00;53.80;;;;;;5007664;28;20607;-50
2021/09/14 03:24:15;;;;;;;5.13;4.80;;;25.10;53.80;;;;;;5008821;28;20649;-47
2021/09/14 03:26:40;;;;;;;4.77;4.37;;;25.20;53.30;;;;;;5008763;28;20233;-46
2021/09/14 03:29:06;;;;;;;6.57;4.63;;;25.10;53.50;;;;;;5008025;28;20303;-46
2021/09/14 03:31:31;;;;;;;5.07;4.57;;;25.10;53.50;;;;;;5012527;28;20198;-47
2021/09/14 03:33:57;;;;;;;4.87;4.43;;;25.00;53.60;;;;;;5010281;28;20225;-46
2021/09/14 03:36:23;;;;;;;5.30;4.80;;;25.00;53.90;;;;;;5011198;28;20602;-45
2021/09/14 03:38:48;;;;;;;5.00;4.50;;;24.90;53.80;;;;;;5010723;28;20236;-47
2021/09/14 03:41:14;;;;;;;5.47;5.00;;;24.90;53.90;;;;;;5007583;28;20194;-47
2021/09/14 03:43:39;;;;;;;4.93;4.53;;;24.90;53.80;;;;;;5005692;28;20192;-47
2021/09/14 03:46:05;;;;;;;5.27;4.77;;;25.00;53.80;;;;;;5003099;28;20202;-46
2021/09/14 03:48:31;;;;;;;4.80;4.40;;;24.90;53.80;;;;;;5001390;28;20190;-49
2021/09/14 03:50:56;;;;;;;5.33;4.93;;;24.80;53.90;;;;;;5004937;28;20704;-45
2021/09/14 03:53:22;;;;;;;5.40;4.70;;;25.00;53.70;;;;;;5004724;28;20202;-46
2021/09/14 03:55:48;;;;;;;4.40;4.10;;;25.00;53.70;;;;;;5006536;28;20217;-46
2021/09/14 03:58:14;;;;;;;4.83;4.43;;;25.00;53.50;;;;;;5002600;28;20284;-45
2021/09/14 04:00:40;;;;;;;5.93;5.43;;;24.90;53.60;;;;;;5003117;28;20205;-50
2021/09/14 04:03:17;;;;;;;4.60;4.30;;;24.90;53.80;;;;;;5003666;28;20445;-47
2021/09/14 04:10:38;;;;;;;5.47;5.07;;;25.00;53.60;;;;;;5006713;28;20463;-46
2021/09/14 04:13:04;;;;;;;6.97;4.60;;;25.00;53.50;;;;;;5001636;28;20677;-46
2021/09/14 04:15:30;;;;;;;5.53;4.87;;;25.10;53.30;;;;;;5004020;28;20455;-51
2021/09/14 04:17:56;;;;;;;5.33;4.90;;;25.00;53.30;;;;;;5005913;28;20814;-45
2021/09/14 04:20:21;;;;;;;4.70;4.40;;;24.80;53.80;;;;;;5005952;28;20190;-46
2021/09/14 04:22:47;;;;;;;4.17;3.80;;;24.80;53.80;;;;;;5005619;28;20569;-48
2021/09/14 04:25:13;;;;;;;5.53;4.73;;;24.70;53.90;;;;;;5003811;28;20202;-47
2021/09/14 04:27:39;;;;;;;4.50;4.10;;;24.70;54.00;;;;;;5004906;28;20317;-51
2021/09/14 04:30:05;;;;;;;4.73;4.30;;;24.70;54.00;;;;;;5005806;28;20540;-50
2021/09/14 04:32:32;;;;;;;4.60;4.30;;;24.80;53.70;;;;;;5003680;28;20659;-47
2021/09/14 04:34:57;;;;;;;5.13;4.40;;;24.80;53.80;;;;;;5008003;28;20807;-49
2021/09/14 04:37:24;;;;;;;4.80;4.40;;;24.70;53.90;;;;;;5005673;28;20503;-49
2021/09/14 04:39:50;;;;;;;5.67;5.27;;;24.80;54.00;;;;;;5000516;28;20198;-45
2021/09/14 04:42:16;;;;;;;6.30;4.70;;;24.80;53.40;;;;;;5005152;28;20471;-46
2021/09/14 04:44:41;;;;;;;10.67;4.83;;;24.90;53.50;;;;;;5004776;28;20956;-49
2021/09/14 04:47:07;;;;;;;5.07;4.57;;;24.80;53.30;;;;;;5006926;28;20197;-51
2021/09/14 04:49:33;;;;;;;4.93;4.53;;;24.80;53.60;;;;;;5000613;28;20194;-48
2021/09/14 04:51:58;;;;;;;6.23;5.73;;;24.60;53.70;;;;;;4998299;28;20186;-46
2021/09/14 04:54:24;;;;;;;6.03;5.53;;;24.40;53.70;;;;;;5002376;28;20197;-47
2021/09/14 04:56:50;;;;;;;5.63;5.23;;;24.00;55.20;;;;;;5003492;28;20266;-48
2021/09/14 04:59:15;;;;;;;5.97;5.37;;;23.90;55.40;;;;;;5002834;28;20264;-45
2021/09/14 05:01:42;;;;;;;5.90;5.40;;;24.00;55.30;;;;;;5004989;28;20286;-45
2021/09/14 05:04:08;;;;;;;5.53;5.10;;;24.00;55.30;;;;;;5006339;28;20224;-47
2021/09/14 05:06:34;;;;;;;5.37;4.90;;;24.10;55.30;;;;;;5006327;28;20928;-45
2021/09/14 05:08:59;;;;;;;7.40;5.33;;;23.90;55.30;;;;;;5007158;28;20224;-45
2021/09/14 05:11:25;;;;;;;5.00;4.70;;;23.80;55.60;;;;;;5005926;28;20197;-45
2021/09/14 05:13:50;;;;;;;5.90;4.77;;;23.80;55.80;;;;;;5005387;28;20614;-45
2021/09/14 05:16:16;;;;;;;9.83;5.17;;;23.90;56.20;;;;;;5007981;28;20280;-46
2021/09/14 05:18:45;;;;;;;7.30;5.73;;;24.00;55.50;;;;;;5013511;28;20272;-46
2021/09/14 05:21:11;;;;;;;11.10;5.77;;;24.10;54.70;;;;;;5004103;28;20201;-45
2021/09/14 05:23:36;;;;;;;5.90;5.07;;;24.10;54.40;;;;;;5012462;28;20460;-46
2021/09/14 05:26:06;;;;;;;5.90;5.40;;;24.10;54.50;;;;;;5010168;28;20639;-46
2021/09/14 05:28:33;;;;;;;6.40;5.80;;;24.00;54.70;;;;;;5011766;28;20186;-45
2021/09/14 05:30:59;;;;;;;6.13;5.63;;;23.90;54.90;;;;;;5011349;28;20894;-48
2021/09/14 05:33:25;;;;;;;5.40;5.00;;;23.70;55.30;;;;;;5012400;28;20479;-45
2021/09/14 05:35:53;;;;;;;5.80;5.40;;;23.40;55.90;;;;;;5013267;28;20547;-45
2021/09/14 05:38:21;;;;;;;6.50;5.90;;;22.90;57.10;;;;;;5009658;28;20540;-46
2021/09/14 05:40:49;;;;;;;6.20;5.70;;;22.70;57.50;;;;;;5005188;28;20995;-47
2021/09/14 05:43:15;;;;;;;6.40;5.80;;;22.60;57.90;;;;;;5007303;28;20448;-45
2021/09/14 05:45:40;;;;;;;6.63;5.23;;;22.70;58.40;;;;;;5005878;28;20467;-46
2021/09/14 05:48:06;;;;;;;6.53;5.70;;;22.80;58.40;;;;;;5003658;28;20441;-47
2021/09/14 05:50:32;;;;;;;6.10;5.50;;;22.90;57.50;;;;;;5004012;28;20642;-45
2021/09/14 05:52:57;;;;;;;6.77;6.17;;;23.00;57.30;;;;;;5005226;28;20194;-47
2021/09/14 05:55:23;;;;;;;6.20;5.70;;;23.10;57.20;;;;;;5008444;28;20217;-50
2021/09/14 05:57:48;;;;;;;9.37;5.80;;;23.20;57.00;;;;;;5003461;28;20291;-46
2021/09/14 06:00:15;;;;;;;6.67;5.80;;;23.20;56.80;;;;;;5013122;28;20194;-46
2021/09/14 06:02:40;;;;;;;6.20;5.60;;;23.30;56.60;;;;;;5013732;28;20194;-48
2021/09/14 06:05:07;;;;;;;6.37;5.87;;;23.40;56.60;;;;;;5013327;28;20452;-48
2021/09/14 06:07:33;;;;;;;6.90;6.30;;;23.50;56.40;;;;;;5011195;28;20444;-47
2021/09/14 06:10:00;;;;;;;6.70;6.10;;;23.50;56.40;;;;;;5006366;28;20943;-47
2021/09/14 06:12:25;;;;;;;5.63;5.23;;;23.50;56.50;;;;;;5012450;28;20452;-48
2021/09/14 06:14:51;;;;;;;6.70;6.07;;;23.60;56.40;;;;;;5011262;28;20432;-47
2021/09/14 06:17:17;;;;;;;5.90;5.27;;;23.80;56.60;;;;;;5013186;28;20222;-46
2021/09/14 06:19:43;;;;;;;6.03;5.43;;;23.90;55.70;;;;;;5006121;28;20464;-51
2021/09/14 06:22:09;;;;;;;6.17;5.67;;;24.10;55.40;;;;;;5010547;28;20204;-51
2021/09/14 06:24:34;;;;;;;6.00;5.50;;;24.20;55.20;;;;;;5011666;28;20804;-46
2021/09/14 06:27:00;;;;;;;7.60;5.30;;;24.30;55.30;;;;;;5012014;28;20197;-47
2021/09/14 06:29:26;;;;;;;8.10;6.27;;;24.50;55.70;;;;;;5012062;28;20194;-46
2021/09/14 06:31:52;;;;;;;5.03;4.53;;;24.60;54.90;;;;;;5010545;28;20201;-51
2021/09/14 06:34:17;;;;;;;7.20;5.33;;;24.70;54.70;;;;;;5012143;28;20622;-54
2021/09/14 06:36:43;;;;;;;7.57;5.73;;;24.80;54.60;;;;;;5012324;28;20554;-47
2021/09/14 06:39:09;;;;;;;7.27;5.93;;;24.90;54.60;;;;;;5011764;28;20202;-49
2021/09/14 06:41:34;;;;;;;6.23;4.90;;;24.70;54.70;;;;;;5011166;28;20196;-50
2021/09/14 06:44:00;;;;;;;5.67;4.77;;;24.40;55.70;;;;;;5010432;28;20642;-45
2021/09/14 06:46:25;;;;;;;5.07;4.60;;;24.40;56.30;;;;;;5012612;28;20631;-46
2021/09/14 06:48:51;;;;;;;8.17;5.40;;;24.50;56.20;;;;;;5011033;28;20198;-51
2021/09/14 06:51:18;;;;;;;5.90;5.00;;;24.70;55.90;;;;;;5010422;28;20194;-48
2021/09/14 06:53:44;;;;;;;5.43;4.70;;;25.00;55.40;;;;;;5007436;28;20500;-50
2021/09/14 06:56:10;;;;;;;7.20;5.27;;;25.40;54.80;;;;;;5009307;28;20486;-46
2021/09/14 06:58:36;;;;;;;6.70;5.60;;;25.90;53.70;;;;;;5012511;28;20473;-52
2021/09/14 07:01:02;;;;;;;6.23;5.60;;;26.00;53.20;;;;;;5011803;28;20209;-48
2021/09/14 07:03:28;;;;;;;5.80;5.30;;;25.90;53.60;;;;;;5010175;28;20206;-47
2021/09/14 07:05:55;;;;;;;9.93;6.03;;;26.00;53.20;;;;;;5011545;28;20502;-47
2021/09/14 07:08:21;;;;;;;5.37;4.87;;;25.90;53.10;;;;;;5010524;28;20642;-49
2021/09/14 07:10:47;;;;;;;6.90;6.20;;;25.80;54.00;;;;;;5010643;28;21099;-48
2021/09/14 07:13:13;;;;;;;5.70;5.30;;;25.80;53.80;;;;;;5007491;28;20429;-46
2021/09/14 07:15:38;;;;;;;5.90;5.50;;;25.80;53.70;;;;;;5011148;28;20456;-48
2021/09/14 07:18:04;;;;;;;6.20;5.60;;;25.90;54.00;;;;;;5011829;28;20194;-50
2021/09/14 07:20:30;;;;;;;6.07;5.57;;;26.20;53.10;;;;;;5009926;28;20186;-50
2021/09/14 07:22:57;;;;;;;6.77;6.00;;;26.00;53.00;;;;;;5001351;28;20225;-48
2021/09/14 07:25:23;;;;;;;6.43;5.93;;;25.90;53.50;;;;;;5008323;28;20437;-49
2021/09/14 07:27:49;;;;;;;7.67;5.17;;;25.90;52.90;;;;;;5009133;28;20686;-46
2021/09/14 07:30:14;;;;;;;6.20;5.70;;;25.50;54.10;;;;;;5007428;28;20205;-46
2021/09/14 07:32:40;;;;;;;6.47;5.97;;;25.90;53.20;;;;;;5008682;28;20201;-47
2021/09/14 07:35:06;;;;;;;5.70;5.20;;;26.10;53.00;;;;;;5010627;28;20198;-49
2021/09/14 07:37:32;;;;;;;5.57;4.63;;;26.50;52.50;;;;;;5008352;28;20257;-48
2021/09/14 07:39:58;;;;;;;6.80;5.87;;;26.90;51.60;;;;;;5009953;28;20436;-45
2021/09/14 07:42:23;;;;;;;5.30;4.90;;;27.20;50.60;;;;;;5010387;28;20444;-46
2021/09/14 07:44:54;;;;;;;5.87;5.37;;;27.20;50.20;;;;;;5011582;28;20202;-48
2021/09/14 07:47:20;;;;;;;6.87;5.70;;;27.50;49.90;;;;;;5010523;28;20281;-44
2021/09/14 07:49:46;;;;;;;5.50;5.10;;;27.60;49.30;;;;;;5011083;28;20536;-48
2021/09/14 07:52:14;;;;;;;5.63;5.17;;;27.60;49.10;;;;;;5010082;28;20351;-47
2021/09/14 07:54:41;;;;;;;5.70;5.30;;;27.30;50.00;;;;;;5007435;28;20441;-45
2021/09/14 07:57:06;;;;;;;5.20;4.53;;;27.40;50.00;;;;;;5008854;28;20489;-50
2021/09/14 07:59:32;;;;;;;6.97;5.40;;;27.50;49.70;;;;;;5007507;28;20483;-49
2021/09/14 08:01:58;;;;;;;6.30;5.90;;;27.70;49.20;;;;;;5009861;28;20198;-44
2021/09/14 08:04:23;;;;;;;6.40;5.30;;;27.60;48.50;;;;;;5003332;28;20197;-44
2021/09/14 08:06:49;;;;;;;5.13;4.73;;;27.70;49.00;;;;;;5009805;28;20448;-47
2021/09/14 08:09:15;;;;;;;6.00;5.50;;;27.80;49.30;;;;;;5009236;28;20225;-48
2021/09/14 08:11:41;;;;;;;6.10;5.60;;;28.00;48.90;;;;;;5011133;28;20201;-45
2021/09/14 08:14:07;;;;;;;6.40;5.00;;;27.70;49.10;;;;;;5010093;28;20441;-45
2021/09/14 08:16:32;;;;;;;5.67;5.17;;;27.90;49.30;;;;;;5010247;28;20232;-46
2021/09/14 08:18:58;;;;;;;5.60;5.10;;;28.10;48.90;;;;;;5009434;28;20189;-47
2021/09/14 08:21:24;;;;;;;6.40;5.40;;;28.20;49.10;;;;;;5001046;28;20220;-45
2021/09/14 08:23:50;;;;;;;5.70;5.00;;;28.20;48.50;;;;;;5008254;28;20198;-45
2021/09/14 08:26:16;;;;;;;5.27;4.87;;;28.40;48.30;;;;;;5009429;28;20229;-45
2021/09/14 08:28:41;;;;;;;5.70;5.30;;;28.60;48.10;;;;;;5010038;28;20437;-49
2021/09/14 08:31:07;;;;;;;5.93;5.33;;;28.60;47.70;;;;;;5010738;28;20574;-45
2021/09/14 08:33:33;;;;;;;5.50;5.07;;;28.70;47.70;;;;;;5008590;28;20221;-46
2021/09/14 08:35:58;;;;;;;4.90;4.60;;;28.80;47.50;;;;;;5008504;28;21061;-49
2021/09/14 08:38:24;;;;;;;6.47;5.03;;;29.00;47.50;;;;;;5010871;28;20197;-47
2021/09/14 08:40:50;;;;;;;6.47;5.80;;;29.00;47.30;;;;;;5008708;28;20213;-44
2021/09/14 08:43:16;;;;;;;7.03;5.47;;;29.10;46.80;;;;;;5007835;28;20279;-45
2021/09/14 08:45:42;;;;;;;6.23;5.73;;;29.10;46.30;;;;;;5004819;28;20221;-45
2021/09/14 08:48:09;;;;;;;5.23;4.77;;;29.00;46.50;;;;;;4993268;28;20209;-44
2021/09/14 08:50:35;;;;;;;6.13;5.70;;;29.00;47.00;;;;;;5000871;28;20201;-45
2021/09/14 08:53:00;;;;;;;6.77;5.73;;;29.10;46.70;;;;;;4993969;28;20437;-45
2021/09/14 08:55:26;;;;;;;6.90;4.80;;;29.30;46.70;;;;;;5003797;28;20281;-45
2021/09/14 08:57:53;;;;;;;5.37;4.60;;;29.50;46.20;;;;;;5002606;28;20324;-45
2021/09/14 09:00:37;;;;;;;5.43;5.03;;;29.70;46.30;;;;;;5009040;28;20193;-45
2021/09/14 09:03:03;;;;;;;9.27;5.57;;;29.70;45.50;;;;;;5003800;28;20533;-45
2021/09/14 09:05:40;;;;;;;6.93;5.50;;;29.60;45.80;;;;;;5010068;28;20519;-46
2021/09/14 09:08:24;;;;;;;5.03;4.63;;;29.70;45.00;;;;;;5001877;28;20515;-44
2021/09/14 09:11:09;;;;;;;7.50;5.50;;;29.90;45.30;;;;;;5000890;28;20449;-45
2021/09/14 09:13:45;;;;;;;5.20;4.80;;;29.80;45.10;;;;;;5007254;28;20575;-45
2021/09/14 09:16:37;;;;;;;5.17;4.67;;;30.00;45.30;;;;;;4996112;28;20513;-45
2021/09/14 09:19:03;;;;;;;5.00;4.60;;;30.20;44.10;;;;;;4998130;28;20810;-45
2021/09/14 09:21:31;;;;;;;6.73;5.03;;;30.30;44.20;;;;;;5009352;28;20507;-45
2021/09/14 09:23:58;;;;;;;4.73;4.30;;;30.30;44.00;;;;;;4996604;28;20882;-46
2021/09/14 09:26:36;;;;;;;5.30;4.90;;;29.90;44.60;;;;;;4996194;28;20442;-46
2021/09/14 09:29:05;;;;;;;5.30;4.70;;;30.10;44.70;;;;;;5001571;28;20816;-49
2021/09/14 09:31:32;;;;;;;10.70;6.00;;;29.90;44.10;;;;;;5006905;28;20443;-46
2021/09/14 09:34:03;;;;;;;5.00;4.70;;;29.70;45.10;;;;;;5008643;28;20574;-46
2021/09/14 09:36:31;;;;;;;5.30;4.80;;;29.90;44.60;;;;;;5002368;28;20480;-47
2021/09/14 09:38:58;;;;;;;4.93;4.63;;;30.20;43.80;;;;;;5008212;28;21147;-47
2021/09/14 09:41:24;;;;;;;5.53;5.13;;;30.40;43.70;;;;;;5005147;28;20448;-46
2021/09/14 09:43:50;;;;;;;5.97;4.80;;;30.60;43.50;;;;;;5007806;28;20436;-45
2021/09/14 09:46:21;;;;;;;6.07;5.00;;;30.90;43.00;;;;;;5011518;28;20420;-47
2021/09/14 09:48:47;;;;;;;5.03;4.67;;;31.10;42.40;;;;;;5012062;28;20441;-46
2021/09/14 09:51:13;;;;;;;4.93;4.53;;;31.40;42.00;;;;;;5013064;28;20440;-49
2021/09/14 09:53:39;;;;;;;5.13;4.73;;;31.40;41.50;;;;;;5012670;28;20459;-45
2021/09/14 09:56:06;;;;;;;5.17;4.77;;;31.60;40.80;;;;;;5009963;28;20485;-47
2021/09/14 09:58:32;;;;;;;6.20;5.60;;;31.80;42.10;;;;;;5009256;28;20226;-45
2021/09/14 10:01:26;;;;;;;5.67;5.10;;;31.90;40.50;;;;;;5012724;28;20430;-48
2021/09/14 10:03:58;;;;;;;6.90;4.70;;;31.80;40.80;;;;;;5008754;28;20210;-45
2021/09/14 10:06:33;;;;;;;5.20;4.60;;;31.80;40.80;;;;;;5010438;28;20458;-46
2021/09/14 10:08:59;;;;;;;5.47;4.97;;;31.70;41.10;;;;;;5012464;28;20440;-50
2021/09/14 10:11:26;;;;;;;5.30;4.77;;;31.90;41.30;;;;;;5013893;28;20433;-48
2021/09/14 10:14:22;;;;;;;5.00;4.50;;;32.30;40.70;;;;;;5010945;28;20819;-49
2021/09/14 10:16:49;;;;;;;5.40;4.90;;;32.60;40.40;;;;;;5006200;28;20502;-50
2021/09/14 10:19:16;;;;;;;6.80;5.13;;;32.80;39.50;;;;;;5011003;28;20492;-50
2021/09/14 10:21:43;;;;;;;5.63;5.13;;;33.00;39.50;;;;;;5013095;28;20440;-51
2021/09/14 10:24:20;;;;;;;4.83;4.43;;;33.20;40.00;;;;;;5011307;28;20433;-48
2021/09/14 10:26:46;;;;;;;9.70;6.80;;;33.40;39.10;;;;;;5005646;28;20445;-50
2021/09/14 10:29:14;;;;;;;4.17;3.80;;;33.40;38.70;;;;;;5008252;28;20439;-51
2021/09/14 10:31:40;;;;;;;4.70;4.40;;;33.60;39.00;;;;;;5012688;28;20256;-50
2021/09/14 10:34:07;;;;;;;5.67;5.10;;;33.70;39.20;;;;;;5010710;28;20536;-49
2021/09/14 10:36:34;;;;;;;8.70;5.07;;;33.60;38.50;;;;;;5011771;28;20499;-50
2021/09/14 10:39:01;;;;;;;5.20;4.70;;;33.60;38.60;;;;;;5012140;28;20996;-48
2021/09/14 10:41:41;;;;;;;4.63;4.10;;;33.70;38.80;;;;;;5012160;28;20425;-45
2021/09/14 10:44:09;;;;;;;5.83;4.40;;;33.80;39.20;;;;;;5012768;28;20799;-50
2021/09/14 10:46:36;;;;;;;6.63;5.30;;;34.10;38.90;;;;;;4997486;28;20441;-47
2021/09/14 10:49:15;;;;;;;6.17;4.40;;;34.20;37.30;;;;;;5012371;28;20469;-46
2021/09/14 10:51:52;;;;;;;6.33;5.77;;;34.20;37.10;;;;;;4995713;28;20430;-45
2021/09/14 10:54:20;;;;;;;6.13;5.17;;;33.80;37.90;;;;;;5001112;28;20444;-46
2021/09/14 10:56:49;;;;;;;5.90;4.83;;;33.90;37.80;;;;;;4995000;28;20539;-46
2021/09/14 10:59:18;;;;;;;6.13;4.90;;;34.10;37.70;;;;;;4995820;28;20469;-48
2021/09/14 11:01:46;;;;;;;5.00;4.70;;;34.30;37.90;;;;;;5012576;28;20804;-47
2021/09/14 11:04:12;;;;;;;5.87;5.27;;;34.40;37.60;;;;;;5005642;28;20829;-52
2021/09/14 11:06:38;;;;;;;4.73;4.43;;;34.40;38.00;;;;;;5009115;28;20445;-46
2021/09/14 11:09:05;;;;;;;5.47;5.07;;;34.60;37.30;;;;;;5008517;28;20211;-46
2021/09/14 11:11:32;;;;;;;5.83;5.30;;;34.80;36.70;;;;;;5012270;28;20201;-47
2021/09/14 11:13:57;;;;;;;5.07;4.77;;;34.80;36.90;;;;;;5012658;28;20461;-45
2021/09/14 11:16:23;;;;;;;6.17;5.57;;;34.80;37.10;;;;;;5012473;28;20991;-47
2021/09/14 11:18:49;;;;;;;6.17;5.77;;;34.60;37.00;;;;;;5009781;28;20650;-50
2021/09/14 11:21:17;;;;;;;6.03;5.63;;;34.80;37.50;;;;;;5002102;28;20200;-47
2021/09/14 11:23:45;;;;;;;6.50;5.87;;;34.90;37.40;;;;;;5005001;28;20204;-50
2021/09/14 11:26:13;;;;;;;6.20;5.60;;;34.90;37.20;;;;;;5007713;28;20437;-47
2021/09/14 11:28:41;;;;;;;6.30;5.80;;;34.90;37.20;;;;;;5010012;28;20524;-45
2021/09/14 11:31:11;;;;;;;5.67;5.27;;;35.10;36.70;;;;;;5010357;28;20803;-46
2021/09/14 11:33:41;;;;;;;6.23;5.63;;;35.10;37.30;;;;;;5011743;28;20448;-47
2021/09/14 11:36:10;;;;;;;5.70;5.30;;;35.10;35.80;;;;;;5011313;28;20508;-46
2021/09/14 11:38:37;;;;;;;5.83;5.17;;;35.10;36.90;;;;;;5002061;28;20441;-49
2021/09/14 11:41:09;;;;;;;6.80;6.17;;;35.20;37.10;;;;;;4996550;28;20482;-48
2021/09/14 11:43:35;;;;;;;6.50;5.87;;;35.20;36.10;;;;;;5000637;28;20441;-46
2021/09/14 11:46:16;;;;;;;7.43;5.60;;;35.30;36.10;;;;;;5003140;28;20479;-47
2021/09/14 11:48:52;;;;;;;6.53;5.90;;;35.50;36.10;;;;;;4999123;28;20445;-48
2021/09/14 11:51:18;;;;;;;5.50;5.10;;;35.60;36.10;;;;;;5002697;28;20452;-47
2021/09/14 11:53:53;;;;;;;5.83;5.23;;;35.80;36.40;;;;;;4999703;28;20442;-52
2021/09/14 11:56:20;;;;;;;6.27;5.73;;;35.90;36.10;;;;;;5004697;28;20232;-47
2021/09/14 11:58:48;;;;;;;6.27;5.87;;;35.90;36.20;;;;;;5002674;28;20473;-50
2021/09/14 12:01:16;;;;;;;5.70;5.30;;;36.00;36.00;;;;;;5001913;28;20447;-46
2021/09/14 12:03:54;;;;;;;5.23;4.83;;;36.00;36.20;;;;;;5000388;28;20528;-46
2021/09/14 12:06:25;;;;;;;5.10;4.70;;;36.20;36.10;;;;;;5008932;28;20448;-46
2021/09/14 12:08:51;;;;;;;5.50;5.10;;;36.20;35.90;;;;;;5009273;28;20443;-45
2021/09/14 12:11:28;;;;;;;5.43;5.03;;;36.30;35.90;;;;;;5010900;28;20429;-45
2021/09/14 12:13:59;;;;;;;6.43;5.93;;;36.00;35.70;;;;;;5008548;28;20528;-45
2021/09/14 12:16:29;;;;;;;6.17;5.67;;;35.80;35.70;;;;;;5006060;28;20554;-51
2021/09/14 12:18:59;;;;;;;7.30;4.70;;;35.80;35.70;;;;;;5010532;28;20785;-44
2021/09/14 12:21:25;;;;;;;6.00;5.50;;;35.70;36.40;;;;;;5011414;28;20443;-45
2021/09/14 12:23:52;;;;;;;8.20;5.33;;;35.60;36.70;;;;;;5008159;28;20538;-45
2021/09/14 12:26:37;;;;;;;6.87;6.30;;;35.50;37.40;;;;;;5010695;28;20452;-47
2021/09/14 12:29:04;;;;;;;7.13;6.43;;;35.40;37.40;;;;;;5003905;28;20449;-45
2021/09/14 12:31:30;;;;;;;6.83;6.20;;;35.20;37.20;;;;;;5009849;28;20789;-47
2021/09/14 12:33:56;;;;;;;6.87;6.10;;;35.10;37.20;;;;;;5003201;28;20787;-45
2021/09/14 12:36:21;;;;;;;7.93;5.47;;;34.80;38.00;;;;;;5006829;28;20488;-45
2021/09/14 12:38:47;;;;;;;6.30;5.60;;;34.60;38.60;;;;;;5010172;28;20566;-47
2021/09/14 12:41:15;;;;;;;7.10;6.40;;;34.50;38.60;;;;;;5011781;28;20197;-49
2021/09/14 12:43:41;;;;;;;6.40;5.80;;;34.60;39.20;;;;;;5002173;28;20201;-47
2021/09/14 12:46:06;;;;;;;6.00;5.50;;;34.50;39.50;;;;;;5008529;28;20471;-46
2021/09/14 12:48:32;;;;;;;7.70;5.90;;;34.50;38.90;;;;;;5000874;28;20794;-45
2021/09/14 12:50:58;;;;;;;6.47;5.97;;;34.50;39.10;;;;;;5009910;28;20190;-45
2021/09/14 12:53:23;;;;;;;6.67;6.17;;;34.50;39.40;;;;;;5005490;28;20186;-45
2021/09/14 12:55:49;;;;;;;6.90;5.70;;;34.40;39.60;;;;;;5007722;28;20197;-48
2021/09/14 12:58:14;;;;;;;8.83;6.17;;;34.50;39.70;;;;;;5007645;28;20233;-46
2021/09/14 13:00:40;;;;;;;6.40;5.80;;;34.50;39.70;;;;;;5009415;28;20209;-45
2021/09/14 13:03:05;;;;;;;6.30;5.70;;;34.50;39.70;;;;;;5005851;28;20227;-49
2021/09/14 13:05:32;;;;;;;7.70;6.43;;;34.60;39.50;;;;;;5010150;28;20239;-44
2021/09/14 13:07:59;;;;;;;8.07;6.97;;;34.60;38.90;;;;;;5009240;28;20194;-47
2021/09/14 13:10:24;;;;;;;7.80;7.00;;;34.50;38.90;;;;;;5011502;28;20432;-51
2021/09/14 13:18:22;;;;;;;7.70;7.00;;;34.60;39.60;;;;;;5010078;28;20495;-50
2021/09/14 13:20:48;;;;;;;6.83;5.90;;;34.80;39.40;;;;;;5015226;28;21276;-49
2021/09/14 13:23:13;;;;;;;9.83;6.77;;;34.80;39.10;;;;;;5011151;28;20197;-49
2021/09/14 13:25:39;;;;;;;7.07;6.57;;;34.80;38.50;;;;;;5014748;28;20190;-49
2021/09/14 13:28:05;;;;;;;7.57;6.97;;;34.90;38.70;;;;;;5002439;28;20194;-48
2021/09/14 13:30:31;;;;;;;7.97;7.37;;;35.10;38.00;;;;;;5006673;28;20448;-51
2021/09/14 13:32:56;;;;;;;6.77;6.27;;;35.20;37.80;;;;;;5013923;28;20273;-49
2021/09/14 13:35:22;;;;;;;9.30;6.20;;;35.30;37.40;;;;;;5014543;28;20202;-49
2021/09/14 13:37:47;;;;;;;8.07;7.47;;;35.40;38.50;;;;;;5013901;28;20257;-45
2021/09/14 13:40:13;;;;;;;9.00;7.20;;;35.30;38.60;;;;;;5004204;28;20189;-49
2021/09/14 13:42:39;;;;;;;7.43;6.73;;;35.60;38.10;;;;;;5014079;28;20193;-50
2021/09/14 13:47:49;;;;;;;7.70;7.00;;;35.60;37.70;;;;;;5000352;28;20233;-46
2021/09/14 13:50:14;;;;;;;8.83;6.60;;;35.70;37.50;;;;;;5001725;28;20433;-50